sensor_id;sensor_type;location;lat;lon;timestamp;temperature;humidity
52565;DHT22;38460;53.106;7.004;2023-06-19T00:01:19;21.50;99.90
52565;DHT22;38460;53.106;7.004;2023-06-19T00:03:44;21.50;99.90
52565;DHT22;38460;53.106;7.004;2023-06-19T00:06:10;21.50;99.90
52565;DHT22;38460;53.106;7.004;2023-06-19T00:08:38;21.50;99.90
52565;DHT22;38460;53.106;7.004;2023-06-19T00:11:07;21.50;99.90
52565;DHT22;38460;53.106;7.004;2023-06-19T00:13:33;21.50;99.90
52565;DHT22;38460;53.106;7.004;2023-06-19T00:16:00;21.40;99.90
52565;DHT22;38460;53.106;7.004;2023-06-19T00:18:27;21.40;99.90
52565;DHT22;38460;53.106;7.004;2023-06-19T00:20:52;21.40;99.90
52565;DHT22;38460;53.106;7.004;2023-06-19T00:23:22;21.40;99.90
52565;DHT22;38460;53.106;7.004;2023-06-19T00:25:48;21.40;99.90
52565;DHT22;38460;53.106;7.004;2023-06-19T00:28:13;21.40;99.90
52565;DHT22;38460;53.106;7.004;2023-06-19T00:30:41;21.40;99.90
52565;DHT22;38460;53.106;7.004;2023-06-19T00:33:07;21.30;99.90
52565;DHT22;38460;53.106;7.004;2023-06-19T00:35:33;21.30;99.90
52565;DHT22;38460;53.106;7.004;2023-06-19T00:37:59;21.30;99.90
52565;DHT22;38460;53.106;7.004;2023-06-19T00:40:29;21.30;99.90
52565;DHT22;38460;53.106;7.004;2023-06-19T00:42:56;21.30;99.90
52565;DHT22;38460;53.106;7.004;2023-06-19T00:45:22;21.30;99.90
52565;DHT22;38460;53.106;7.004;2023-06-19T00:47:50;21.30;99.90
52565;DHT22;38460;53.106;7.004;2023-06-19T00:50:16;21.30;99.90
52565;DHT22;38460;53.106;7.004;2023-06-19T00:52:43;21.30;99.90
52565;DHT22;38460;53.106;7.004;2023-06-19T00:55:09;21.30;99.90
52565;DHT22;38460;53.106;7.004;2023-06-19T00:57:36;21.30;99.90
52565;DHT22;38460;53.106;7.004;2023-06-19T01:00:03;21.30;99.90
52565;DHT22;38460;53.106;7.004;2023-06-19T01:02:34;21.30;99.90
52565;DHT22;38460;53.106;7.004;2023-06-19T01:05:00;21.30;99.90
52565;DHT22;38460;53.106;7.004;2023-06-19T01:10:33;21.30;99.40
52565;DHT22;38460;53.106;7.004;2023-06-19T01:13:04;21.30;99.40
52565;DHT22;38460;53.106;7.004;2023-06-19T01:15:32;21.30;99.30
52565;DHT22;38460;53.106;7.004;2023-06-19T01:17:58;21.30;99.10
52565;DHT22;38460;53.106;7.004;2023-06-19T01:20:25;21.30;99.00
52565;DHT22;38460;53.106;7.004;2023-06-19T01:22:51;21.30;98.80
52565;DHT22;38460;53.106;7.004;2023-06-19T01:25:17;21.30;98.50
52565;DHT22;38460;53.106;7.004;2023-06-19T01:27:43;21.40;98.30
52565;DHT22;38460;53.106;7.004;2023-06-19T01:30:10;21.40;98.00
52565;DHT22;38460;53.106;7.004;2023-06-19T01:32:47;21.40;97.80
52565;DHT22;38460;53.106;7.004;2023-06-19T01:35:19;21.40;97.50
52565;DHT22;38460;53.106;7.004;2023-06-19T01:37:46;21.40;97.30
52565;DHT22;38460;53.106;7.004;2023-06-19T01:40:12;21.40;97.10
52565;DHT22;38460;53.106;7.004;2023-06-19T01:42:39;21.40;97.00
52565;DHT22;38460;53.106;7.004;2023-06-19T01:45:07;21.40;96.70
52565;DHT22;38460;53.106;7.004;2023-06-19T01:47:33;21.40;96.50
52565;DHT22;38460;53.106;7.004;2023-06-19T01:49:59;21.40;96.30
52565;DHT22;38460;53.106;7.004;2023-06-19T01:52:25;21.40;96.20
52565;DHT22;38460;53.106;7.004;2023-06-19T01:54:51;21.40;96.10
52565;DHT22;38460;53.106;7.004;2023-06-19T01:57:17;21.40;96.00
52565;DHT22;38460;53.106;7.004;2023-06-19T01:59:43;21.40;96.00
52565;DHT22;38460;53.106;7.004;2023-06-19T02:02:09;21.40;95.90
52565;DHT22;38460;53.106;7.004;2023-06-19T02:04:35;21.40;95.80
52565;DHT22;38460;53.106;7.004;2023-06-19T02:07:01;21.40;95.80
52565;DHT22;38460;53.106;7.004;2023-06-19T02:09:27;21.40;95.70
52565;DHT22;38460;53.106;7.004;2023-06-19T02:11:53;21.40;95.70
52565;DHT22;38460;53.106;7.004;2023-06-19T02:14:19;21.40;95.70
52565;DHT22;38460;53.106;7.004;2023-06-19T02:16:44;21.40;95.60
52565;DHT22;38460;53.106;7.004;2023-06-19T02:19:13;21.40;95.50
52565;DHT22;38460;53.106;7.004;2023-06-19T02:21:39;21.40;95.50
52565;DHT22;38460;53.106;7.004;2023-06-19T02:24:05;21.40;95.40
52565;DHT22;38460;53.106;7.004;2023-06-19T02:26:31;21.40;95.40
52565;DHT22;38460;53.106;7.004;2023-06-19T02:28:57;21.40;95.40
52565;DHT22;38460;53.106;7.004;2023-06-19T02:31:23;21.40;95.30
52565;DHT22;38460;53.106;7.004;2023-06-19T02:33:49;21.40;95.20
52565;DHT22;38460;53.106;7.004;2023-06-19T02:36:15;21.40;95.20
52565;DHT22;38460;53.106;7.004;2023-06-19T02:38:48;21.30;95.20
52565;DHT22;38460;53.106;7.004;2023-06-19T02:41:14;21.30;95.20
52565;DHT22;38460;53.106;7.004;2023-06-19T02:43:43;21.30;95.20
52565;DHT22;38460;53.106;7.004;2023-06-19T02:46:09;21.30;95.10
52565;DHT22;38460;53.106;7.004;2023-06-19T02:48:35;21.30;95.10
52565;DHT22;38460;53.106;7.004;2023-06-19T02:51:01;21.20;95.10
52565;DHT22;38460;53.106;7.004;2023-06-19T02:53:27;21.20;95.10
52565;DHT22;38460;53.106;7.004;2023-06-19T02:55:52;21.20;95.10
52565;DHT22;38460;53.106;7.004;2023-06-19T02:58:18;21.20;95.20
52565;DHT22;38460;53.106;7.004;2023-06-19T03:00:45;21.20;95.20
52565;DHT22;38460;53.106;7.004;2023-06-19T03:03:11;21.20;95.20
52565;DHT22;38460;53.106;7.004;2023-06-19T03:05:37;21.10;95.10
52565;DHT22;38460;53.106;7.004;2023-06-19T03:08:04;21.10;95.10
52565;DHT22;38460;53.106;7.004;2023-06-19T03:10:30;21.10;95.20
52565;DHT22;38460;53.106;7.004;2023-06-19T03:12:56;21.10;95.20
52565;DHT22;38460;53.106;7.004;2023-06-19T03:15:24;21.10;95.20
52565;DHT22;38460;53.106;7.004;2023-06-19T03:17:50;21.10;95.30
52565;DHT22;38460;53.106;7.004;2023-06-19T03:20:15;21.10;95.30
52565;DHT22;38460;53.106;7.004;2023-06-19T03:22:41;21.10;95.30
52565;DHT22;38460;53.106;7.004;2023-06-19T03:25:08;21.10;95.60
52565;DHT22;38460;53.106;7.004;2023-06-19T03:27:34;21.10;95.30
52565;DHT22;38460;53.106;7.004;2023-06-19T03:30:00;21.10;95.40
52565;DHT22;38460;53.106;7.004;2023-06-19T03:32:26;21.10;95.40
52565;DHT22;38460;53.106;7.004;2023-06-19T03:34:52;21.10;95.50
52565;DHT22;38460;53.106;7.004;2023-06-19T03:37:18;21.10;95.60
52565;DHT22;38460;53.106;7.004;2023-06-19T03:39:43;21.20;95.70
52565;DHT22;38460;53.106;7.004;2023-06-19T03:42:09;21.20;95.70
52565;DHT22;38460;53.106;7.004;2023-06-19T03:44:35;21.20;95.80
52565;DHT22;38460;53.106;7.004;2023-06-19T03:47:01;21.20;95.90
52565;DHT22;38460;53.106;7.004;2023-06-19T03:49:26;21.20;96.00
52565;DHT22;38460;53.106;7.004;2023-06-19T03:51:52;21.20;96.00
52565;DHT22;38460;53.106;7.004;2023-06-19T03:54:20;21.20;96.20
52565;DHT22;38460;53.106;7.004;2023-06-19T03:56:46;21.20;96.30
52565;DHT22;38460;53.106;7.004;2023-06-19T03:59:11;21.30;96.50
52565;DHT22;38460;53.106;7.004;2023-06-19T04:01:37;21.30;96.60
52565;DHT22;38460;53.106;7.004;2023-06-19T04:04:03;21.30;96.70
52565;DHT22;38460;53.106;7.004;2023-06-19T04:06:28;21.30;96.80
52565;DHT22;38460;53.106;7.004;2023-06-19T04:08:54;21.30;96.90
52565;DHT22;38460;53.106;7.004;2023-06-19T04:11:20;21.30;97.00
52565;DHT22;38460;53.106;7.004;2023-06-19T04:13:46;21.30;97.10
52565;DHT22;38460;53.106;7.004;2023-06-19T04:16:12;21.30;97.30
52565;DHT22;38460;53.106;7.004;2023-06-19T04:18:38;21.30;97.40
52565;DHT22;38460;53.106;7.004;2023-06-19T04:21:04;21.30;97.60
52565;DHT22;38460;53.106;7.004;2023-06-19T04:23:30;21.30;97.80
52565;DHT22;38460;53.106;7.004;2023-06-19T04:25:55;21.30;97.90
52565;DHT22;38460;53.106;7.004;2023-06-19T04:28:21;21.30;98.10
52565;DHT22;38460;53.106;7.004;2023-06-19T04:30:47;21.30;98.20
52565;DHT22;38460;53.106;7.004;2023-06-19T04:33:12;21.30;98.30
52565;DHT22;38460;53.106;7.004;2023-06-19T04:35:38;21.30;98.30
52565;DHT22;38460;53.106;7.004;2023-06-19T04:38:07;21.30;98.70
52565;DHT22;38460;53.106;7.004;2023-06-19T04:40:33;21.30;98.50
52565;DHT22;38460;53.106;7.004;2023-06-19T04:43:01;21.30;98.60
52565;DHT22;38460;53.106;7.004;2023-06-19T04:45:28;21.30;98.70
52565;DHT22;38460;53.106;7.004;2023-06-19T04:47:53;21.20;98.90
52565;DHT22;38460;53.106;7.004;2023-06-19T04:50:23;21.20;99.00
52565;DHT22;38460;53.106;7.004;2023-06-19T04:52:48;21.20;99.20
52565;DHT22;38460;53.106;7.004;2023-06-19T04:55:16;21.20;99.30
52565;DHT22;38460;53.106;7.004;2023-06-19T04:57:41;21.20;99.50
52565;DHT22;38460;53.106;7.004;2023-06-19T05:00:07;21.20;99.60
52565;DHT22;38460;53.106;7.004;2023-06-19T05:02:35;21.20;99.80
52565;DHT22;38460;53.106;7.004;2023-06-19T05:05:02;21.10;99.90
52565;DHT22;38460;53.106;7.004;2023-06-19T05:07:31;21.20;99.90
52565;DHT22;38460;53.106;7.004;2023-06-19T05:09:57;21.10;99.90
52565;DHT22;38460;53.106;7.004;2023-06-19T05:12:23;21.20;99.90
52565;DHT22;38460;53.106;7.004;2023-06-19T05:14:49;21.20;99.90
52565;DHT22;38460;53.106;7.004;2023-06-19T05:17:14;21.20;99.90
52565;DHT22;38460;53.106;7.004;2023-06-19T05:19:40;21.20;99.90
52565;DHT22;38460;53.106;7.004;2023-06-19T05:22:06;21.20;99.90
52565;DHT22;38460;53.106;7.004;2023-06-19T05:24:32;21.30;99.90
52565;DHT22;38460;53.106;7.004;2023-06-19T05:26:58;21.30;99.90
52565;DHT22;38460;53.106;7.004;2023-06-19T05:29:24;21.30;99.90
52565;DHT22;38460;53.106;7.004;2023-06-19T05:31:50;21.30;99.90
52565;DHT22;38460;53.106;7.004;2023-06-19T05:34:16;21.30;99.90
52565;DHT22;38460;53.106;7.004;2023-06-19T05:36:42;21.30;99.90
52565;DHT22;38460;53.106;7.004;2023-06-19T05:39:10;21.40;99.90
52565;DHT22;38460;53.106;7.004;2023-06-19T05:41:36;21.30;99.90
52565;DHT22;38460;53.106;7.004;2023-06-19T05:44:02;21.30;99.90
52565;DHT22;38460;53.106;7.004;2023-06-19T05:46:28;21.30;99.90
52565;DHT22;38460;53.106;7.004;2023-06-19T05:48:54;21.40;99.90
52565;DHT22;38460;53.106;7.004;2023-06-19T05:51:20;21.40;99.90
52565;DHT22;38460;53.106;7.004;2023-06-19T05:53:46;21.40;99.90
52565;DHT22;38460;53.106;7.004;2023-06-19T05:56:12;21.40;99.90
52565;DHT22;38460;53.106;7.004;2023-06-19T05:58:38;21.50;99.90
52565;DHT22;38460;53.106;7.004;2023-06-19T06:01:04;21.50;99.90
52565;DHT22;38460;53.106;7.004;2023-06-19T06:03:30;21.50;99.90
52565;DHT22;38460;53.106;7.004;2023-06-19T06:05:57;21.60;99.90
52565;DHT22;38460;53.106;7.004;2023-06-19T06:08:29;21.60;99.90
52565;DHT22;38460;53.106;7.004;2023-06-19T06:10:55;21.60;99.90
52565;DHT22;38460;53.106;7.004;2023-06-19T06:13:20;21.60;99.90
52565;DHT22;38460;53.106;7.004;2023-06-19T06:15:46;21.60;99.90
52565;DHT22;38460;53.106;7.004;2023-06-19T06:18:12;21.60;99.90
52565;DHT22;38460;53.106;7.004;2023-06-19T06:20:38;21.50;99.90
52565;DHT22;38460;53.106;7.004;2023-06-19T06:23:03;21.50;99.90
52565;DHT22;38460;53.106;7.004;2023-06-19T06:25:29;21.50;99.90
52565;DHT22;38460;53.106;7.004;2023-06-19T06:27:55;21.60;99.90
52565;DHT22;38460;53.106;7.004;2023-06-19T06:30:21;21.60;99.90
52565;DHT22;38460;53.106;7.004;2023-06-19T06:32:48;21.60;99.90
52565;DHT22;38460;53.106;7.004;2023-06-19T06:35:14;21.70;99.90
52565;DHT22;38460;53.106;7.004;2023-06-19T06:37:39;21.70;99.90
52565;DHT22;38460;53.106;7.004;2023-06-19T06:40:07;21.80;99.90
52565;DHT22;38460;53.106;7.004;2023-06-19T06:42:37;21.80;99.90
52565;DHT22;38460;53.106;7.004;2023-06-19T06:45:05;21.80;99.90
52565;DHT22;38460;53.106;7.004;2023-06-19T06:47:30;21.90;99.90
52565;DHT22;38460;53.106;7.004;2023-06-19T06:49:56;21.90;99.90
52565;DHT22;38460;53.106;7.004;2023-06-19T06:52:22;21.90;99.90
52565;DHT22;38460;53.106;7.004;2023-06-19T06:54:48;21.90;99.90
52565;DHT22;38460;53.106;7.004;2023-06-19T06:57:14;21.90;99.90
52565;DHT22;38460;53.106;7.004;2023-06-19T06:59:39;21.90;99.90
52565;DHT22;38460;53.106;7.004;2023-06-19T07:02:05;22.00;99.90
52565;DHT22;38460;53.106;7.004;2023-06-19T07:04:31;22.00;99.90
52565;DHT22;38460;53.106;7.004;2023-06-19T07:06:57;22.00;99.90
52565;DHT22;38460;53.106;7.004;2023-06-19T07:09:23;22.00;99.90
52565;DHT22;38460;53.106;7.004;2023-06-19T07:11:49;22.00;99.90
52565;DHT22;38460;53.106;7.004;2023-06-19T07:14:15;22.00;99.90
52565;DHT22;38460;53.106;7.004;2023-06-19T07:16:44;22.00;99.90
52565;DHT22;38460;53.106;7.004;2023-06-19T07:19:11;22.00;99.90
52565;DHT22;38460;53.106;7.004;2023-06-19T07:21:37;22.00;99.90
52565;DHT22;38460;53.106;7.004;2023-06-19T07:24:04;22.10;99.90
52565;DHT22;38460;53.106;7.004;2023-06-19T07:26:30;22.10;99.90
52565;DHT22;38460;53.106;7.004;2023-06-19T07:28:57;22.10;99.90
52565;DHT22;38460;53.106;7.004;2023-06-19T07:31:23;22.00;99.90
52565;DHT22;38460;53.106;7.004;2023-06-19T07:33:49;22.00;99.90
52565;DHT22;38460;53.106;7.004;2023-06-19T07:36:15;22.00;99.90
52565;DHT22;38460;53.106;7.004;2023-06-19T07:38:45;21.90;99.90
52565;DHT22;38460;53.106;7.004;2023-06-19T07:41:11;21.90;99.90
52565;DHT22;38460;53.106;7.004;2023-06-19T07:43:38;21.90;99.90
52565;DHT22;38460;53.106;7.004;2023-06-19T07:46:04;21.80;99.90
52565;DHT22;38460;53.106;7.004;2023-06-19T07:48:29;21.70;99.90
52565;DHT22;38460;53.106;7.004;2023-06-19T07:50:55;21.70;99.90
52565;DHT22;38460;53.106;7.004;2023-06-19T07:53:21;21.70;99.90
52565;DHT22;38460;53.106;7.004;2023-06-19T07:55:46;21.60;99.90
52565;DHT22;38460;53.106;7.004;2023-06-19T07:58:12;21.60;99.90
52565;DHT22;38460;53.106;7.004;2023-06-19T08:00:38;21.60;99.90
52565;DHT22;38460;53.106;7.004;2023-06-19T08:03:04;21.50;99.90
52565;DHT22;38460;53.106;7.004;2023-06-19T08:05:30;21.60;99.90
52565;DHT22;38460;53.106;7.004;2023-06-19T08:07:58;21.50;99.90
52565;DHT22;38460;53.106;7.004;2023-06-19T08:10:23;21.60;99.90
52565;DHT22;38460;53.106;7.004;2023-06-19T08:12:49;21.60;99.90
52565;DHT22;38460;53.106;7.004;2023-06-19T08:15:15;21.60;99.90
52565;DHT22;38460;53.106;7.004;2023-06-19T08:17:41;21.50;99.90
52565;DHT22;38460;53.106;7.004;2023-06-19T08:20:08;21.50;99.90
52565;DHT22;38460;53.106;7.004;2023-06-19T08:22:34;21.50;99.90
52565;DHT22;38460;53.106;7.004;2023-06-19T08:25:00;21.40;99.90
52565;DHT22;38460;53.106;7.004;2023-06-19T08:27:26;21.40;99.90
52565;DHT22;38460;53.106;7.004;2023-06-19T08:29:51;21.40;99.90
52565;DHT22;38460;53.106;7.004;2023-06-19T08:32:17;21.40;99.90
52565;DHT22;38460;53.106;7.004;2023-06-19T08:34:43;21.40;99.90
52565;DHT22;38460;53.106;7.004;2023-06-19T08:37:09;21.40;99.90
52565;DHT22;38460;53.106;7.004;2023-06-19T08:39:35;21.40;99.90
52565;DHT22;38460;53.106;7.004;2023-06-19T08:42:10;21.40;99.90
52565;DHT22;38460;53.106;7.004;2023-06-19T08:44:36;21.40;99.90
52565;DHT22;38460;53.106;7.004;2023-06-19T08:47:02;21.40;99.90
52565;DHT22;38460;53.106;7.004;2023-06-19T08:49:34;21.40;99.90
52565;DHT22;38460;53.106;7.004;2023-06-19T08:52:03;21.40;99.90
52565;DHT22;38460;53.106;7.004;2023-06-19T08:54:29;21.40;99.90
52565;DHT22;38460;53.106;7.004;2023-06-19T08:56:55;21.30;99.90
52565;DHT22;38460;53.106;7.004;2023-06-19T08:59:21;21.40;99.90
52565;DHT22;38460;53.106;7.004;2023-06-19T09:01:52;21.40;99.90
52565;DHT22;38460;53.106;7.004;2023-06-19T09:04:24;21.40;99.90
52565;DHT22;38460;53.106;7.004;2023-06-19T09:06:57;21.40;99.90
52565;DHT22;38460;53.106;7.004;2023-06-19T09:09:25;21.30;99.90
52565;DHT22;38460;53.106;7.004;2023-06-19T09:14:38;21.30;99.90
52565;DHT22;38460;53.106;7.004;2023-06-19T09:17:06;21.30;99.90
52565;DHT22;38460;53.106;7.004;2023-06-19T09:19:33;21.30;99.90
52565;DHT22;38460;53.106;7.004;2023-06-19T09:22:09;21.20;99.90
52565;DHT22;38460;53.106;7.004;2023-06-19T09:24:37;21.20;99.90
52565;DHT22;38460;53.106;7.004;2023-06-19T09:27:21;21.20;99.90
52565;DHT22;38460;53.106;7.004;2023-06-19T09:29:50;21.10;99.90
52565;DHT22;38460;53.106;7.004;2023-06-19T09:32:27;21.10;99.90
52565;DHT22;38460;53.106;7.004;2023-06-19T09:34:57;21.10;99.90
52565;DHT22;38460;53.106;7.004;2023-06-19T09:37:28;21.10;99.90
52565;DHT22;38460;53.106;7.004;2023-06-19T09:40:02;21.00;99.90
52565;DHT22;38460;53.106;7.004;2023-06-19T09:42:40;21.00;99.90
52565;DHT22;38460;53.106;7.004;2023-06-19T09:45:09;21.00;99.90
52565;DHT22;38460;53.106;7.004;2023-06-19T09:47:46;21.10;99.90
52565;DHT22;38460;53.106;7.004;2023-06-19T09:50:16;21.10;99.90
52565;DHT22;38460;53.106;7.004;2023-06-19T09:52:43;21.10;99.90
52565;DHT22;38460;53.106;7.004;2023-06-19T09:55:11;21.10;99.90
52565;DHT22;38460;53.106;7.004;2023-06-19T09:57:40;21.10;99.90
52565;DHT22;38460;53.106;7.004;2023-06-19T10:00:09;21.10;99.90
52565;DHT22;38460;53.106;7.004;2023-06-19T10:02:45;21.10;99.90
52565;DHT22;38460;53.106;7.004;2023-06-19T10:05:12;21.20;99.90
52565;DHT22;38460;53.106;7.004;2023-06-19T10:07:42;21.20;99.90
52565;DHT22;38460;53.106;7.004;2023-06-19T10:10:11;21.30;99.90
52565;DHT22;38460;53.106;7.004;2023-06-19T10:12:45;21.40;99.90
52565;DHT22;38460;53.106;7.004;2023-06-19T10:15:19;21.50;99.90
52565;DHT22;38460;53.106;7.004;2023-06-19T10:20:21;21.50;99.90
52565;DHT22;38460;53.106;7.004;2023-06-19T10:22:51;21.60;99.90
52565;DHT22;38460;53.106;7.004;2023-06-19T10:25:27;21.60;99.90
52565;DHT22;38460;53.106;7.004;2023-06-19T10:27:53;21.70;99.90
52565;DHT22;38460;53.106;7.004;2023-06-19T10:30:20;21.80;99.90
52565;DHT22;38460;53.106;7.004;2023-06-19T10:32:47;21.80;99.90
52565;DHT22;38460;53.106;7.004;2023-06-19T10:35:15;22.00;99.90
52565;DHT22;38460;53.106;7.004;2023-06-19T10:37:41;22.00;99.90
52565;DHT22;38460;53.106;7.004;2023-06-19T10:40:08;22.20;99.90
52565;DHT22;38460;53.106;7.004;2023-06-19T10:42:38;22.30;99.90
52565;DHT22;38460;53.106;7.004;2023-06-19T10:45:09;22.40;99.90
52565;DHT22;38460;53.106;7.004;2023-06-19T10:47:35;22.40;99.90
52565;DHT22;38460;53.106;7.004;2023-06-19T10:50:03;22.50;99.90
52565;DHT22;38460;53.106;7.004;2023-06-19T10:52:29;22.60;99.90
52565;DHT22;38460;53.106;7.004;2023-06-19T10:54:56;22.70;99.90
52565;DHT22;38460;53.106;7.004;2023-06-19T10:57:31;22.70;99.90
52565;DHT22;38460;53.106;7.004;2023-06-19T10:59:58;22.80;99.90
52565;DHT22;38460;53.106;7.004;2023-06-19T11:02:24;22.80;99.90
52565;DHT22;38460;53.106;7.004;2023-06-19T11:04:54;22.80;99.90
52565;DHT22;38460;53.106;7.004;2023-06-19T11:07:21;22.80;99.90
52565;DHT22;38460;53.106;7.004;2023-06-19T11:09:48;22.90;99.90
52565;DHT22;38460;53.106;7.004;2023-06-19T11:12:20;22.90;99.90
52565;DHT22;38460;53.106;7.004;2023-06-19T11:14:50;23.00;99.90
52565;DHT22;38460;53.106;7.004;2023-06-19T11:17:17;23.00;99.90
52565;DHT22;38460;53.106;7.004;2023-06-19T11:19:47;23.10;99.90
52565;DHT22;38460;53.106;7.004;2023-06-19T11:22:13;23.20;99.90
52565;DHT22;38460;53.106;7.004;2023-06-19T11:24:45;23.20;99.90
52565;DHT22;38460;53.106;7.004;2023-06-19T11:27:22;23.20;99.90
52565;DHT22;38460;53.106;7.004;2023-06-19T11:29:58;23.20;99.90
52565;DHT22;38460;53.106;7.004;2023-06-19T11:32:29;23.30;99.90
52565;DHT22;38460;53.106;7.004;2023-06-19T11:34:56;23.40;99.90
52565;DHT22;38460;53.106;7.004;2023-06-19T11:37:23;23.40;99.90
52565;DHT22;38460;53.106;7.004;2023-06-19T11:39:49;23.40;99.90
52565;DHT22;38460;53.106;7.004;2023-06-19T11:42:16;23.40;99.90
52565;DHT22;38460;53.106;7.004;2023-06-19T11:45:00;23.50;99.90
52565;DHT22;38460;53.106;7.004;2023-06-19T11:47:30;23.60;99.90
52565;DHT22;38460;53.106;7.004;2023-06-19T11:49:57;23.70;99.90
52565;DHT22;38460;53.106;7.004;2023-06-19T11:52:23;23.80;99.90
52565;DHT22;38460;53.106;7.004;2023-06-19T11:54:49;23.80;99.90
52565;DHT22;38460;53.106;7.004;2023-06-19T11:57:14;23.80;99.90
52565;DHT22;38460;53.106;7.004;2023-06-19T11:59:41;23.80;99.90
52565;DHT22;38460;53.106;7.004;2023-06-19T12:02:08;23.80;99.90
52565;DHT22;38460;53.106;7.004;2023-06-19T12:04:35;23.90;99.90
52565;DHT22;38460;53.106;7.004;2023-06-19T12:07:01;23.80;99.90
52565;DHT22;38460;53.106;7.004;2023-06-19T12:09:28;23.80;99.90
52565;DHT22;38460;53.106;7.004;2023-06-19T12:11:53;23.70;99.90
52565;DHT22;38460;53.106;7.004;2023-06-19T12:14:19;23.80;99.90
52565;DHT22;38460;53.106;7.004;2023-06-19T12:16:46;23.80;99.90
52565;DHT22;38460;53.106;7.004;2023-06-19T12:19:12;23.80;99.90
52565;DHT22;38460;53.106;7.004;2023-06-19T12:21:38;23.90;99.90
52565;DHT22;38460;53.106;7.004;2023-06-19T12:24:04;23.90;99.90
52565;DHT22;38460;53.106;7.004;2023-06-19T12:26:30;23.80;99.90
52565;DHT22;38460;53.106;7.004;2023-06-19T12:28:55;23.90;99.90
52565;DHT22;38460;53.106;7.004;2023-06-19T12:31:21;24.00;99.90
52565;DHT22;38460;53.106;7.004;2023-06-19T12:33:47;24.00;99.90
52565;DHT22;38460;53.106;7.004;2023-06-19T12:36:17;24.10;99.90
52565;DHT22;38460;53.106;7.004;2023-06-19T12:38:42;24.20;99.90
52565;DHT22;38460;53.106;7.004;2023-06-19T12:41:08;24.20;99.90
52565;DHT22;38460;53.106;7.004;2023-06-19T12:43:34;24.20;99.70
52565;DHT22;38460;53.106;7.004;2023-06-19T12:46:00;24.20;99.50
52565;DHT22;38460;53.106;7.004;2023-06-19T12:48:27;24.30;99.60
52565;DHT22;38460;53.106;7.004;2023-06-19T12:50:52;24.30;99.10
52565;DHT22;38460;53.106;7.004;2023-06-19T12:53:18;24.30;97.90
52565;DHT22;38460;53.106;7.004;2023-06-19T12:55:44;24.40;98.10
52565;DHT22;38460;53.106;7.004;2023-06-19T12:58:10;24.40;98.00
52565;DHT22;38460;53.106;7.004;2023-06-19T13:00:39;24.30;97.90
52565;DHT22;38460;53.106;7.004;2023-06-19T13:03:05;24.30;97.60
52565;DHT22;38460;53.106;7.004;2023-06-19T13:05:30;24.20;97.60
52565;DHT22;38460;53.106;7.004;2023-06-19T13:07:56;24.20;97.50
52565;DHT22;38460;53.106;7.004;2023-06-19T13:10:22;24.30;97.70
52565;DHT22;38460;53.106;7.004;2023-06-19T13:12:47;24.50;97.80
52565;DHT22;38460;53.106;7.004;2023-06-19T13:15:13;24.60;97.60
52565;DHT22;38460;53.106;7.004;2023-06-19T13:17:39;24.60;97.70
52565;DHT22;38460;53.106;7.004;2023-06-19T13:20:05;24.60;97.80
52565;DHT22;38460;53.106;7.004;2023-06-19T13:22:31;24.70;97.90
52565;DHT22;38460;53.106;7.004;2023-06-19T13:24:57;24.60;97.70
52565;DHT22;38460;53.106;7.004;2023-06-19T13:27:23;24.60;97.50
52565;DHT22;38460;53.106;7.004;2023-06-19T13:29:49;24.60;97.50
52565;DHT22;38460;53.106;7.004;2023-06-19T13:32:14;24.60;98.00
52565;DHT22;38460;53.106;7.004;2023-06-19T13:34:40;24.60;97.90
52565;DHT22;38460;53.106;7.004;2023-06-19T13:37:06;24.70;97.60
52565;DHT22;38460;53.106;7.004;2023-06-19T13:39:31;25.00;97.50
52565;DHT22;38460;53.106;7.004;2023-06-19T13:41:57;25.20;97.20
52565;DHT22;38460;53.106;7.004;2023-06-19T13:44:27;25.50;97.40
52565;DHT22;38460;53.106;7.004;2023-06-19T13:46:53;25.80;97.20
52565;DHT22;38460;53.106;7.004;2023-06-19T13:49:19;26.00;96.80
52565;DHT22;38460;53.106;7.004;2023-06-19T13:51:45;26.20;96.30
52565;DHT22;38460;53.106;7.004;2023-06-19T13:54:11;26.10;96.00
52565;DHT22;38460;53.106;7.004;2023-06-19T13:56:39;26.00;95.80
52565;DHT22;38460;53.106;7.004;2023-06-19T13:59:05;26.10;95.50
52565;DHT22;38460;53.106;7.004;2023-06-19T14:01:31;26.30;95.50
52565;DHT22;38460;53.106;7.004;2023-06-19T14:03:57;26.60;95.40
52565;DHT22;38460;53.106;7.004;2023-06-19T14:06:24;26.70;95.00
52565;DHT22;38460;53.106;7.004;2023-06-19T14:08:50;26.90;94.70
52565;DHT22;38460;53.106;7.004;2023-06-19T14:11:17;27.00;94.40
52565;DHT22;38460;53.106;7.004;2023-06-19T14:13:43;27.10;94.30
52565;DHT22;38460;53.106;7.004;2023-06-19T14:16:09;27.20;94.40
52565;DHT22;38460;53.106;7.004;2023-06-19T14:18:35;27.40;94.00
52565;DHT22;38460;53.106;7.004;2023-06-19T14:21:03;27.50;94.20
52565;DHT22;38460;53.106;7.004;2023-06-19T14:23:28;27.50;93.80
52565;DHT22;38460;53.106;7.004;2023-06-19T14:25:54;27.30;93.10
52565;DHT22;38460;53.106;7.004;2023-06-19T14:28:20;27.40;93.10
52565;DHT22;38460;53.106;7.004;2023-06-19T14:30:46;27.50;93.10
52565;DHT22;38460;53.106;7.004;2023-06-19T14:33:12;27.70;93.00
52565;DHT22;38460;53.106;7.004;2023-06-19T14:35:41;27.80;93.10
52565;DHT22;38460;53.106;7.004;2023-06-19T14:38:07;28.00;92.80
52565;DHT22;38460;53.106;7.004;2023-06-19T14:40:33;28.10;92.30
52565;DHT22;38460;53.106;7.004;2023-06-19T14:42:58;28.20;92.50
52565;DHT22;38460;53.106;7.004;2023-06-19T14:45:24;28.40;92.30
52565;DHT22;38460;53.106;7.004;2023-06-19T14:47:50;28.40;91.80
52565;DHT22;38460;53.106;7.004;2023-06-19T14:50:16;28.50;91.40
52565;DHT22;38460;53.106;7.004;2023-06-19T14:52:41;28.40;91.00
52565;DHT22;38460;53.106;7.004;2023-06-19T14:55:07;28.40;90.80
52565;DHT22;38460;53.106;7.004;2023-06-19T14:57:33;28.50;90.60
52565;DHT22;38460;53.106;7.004;2023-06-19T14:59:59;28.60;90.60
52565;DHT22;38460;53.106;7.004;2023-06-19T15:02:24;28.60;90.00
52565;DHT22;38460;53.106;7.004;2023-06-19T15:04:50;28.50;89.50
52565;DHT22;38460;53.106;7.004;2023-06-19T15:07:16;28.40;88.60
52565;DHT22;38460;53.106;7.004;2023-06-19T15:09:41;28.60;90.10
52565;DHT22;38460;53.106;7.004;2023-06-19T15:12:08;28.70;89.90
52565;DHT22;38460;53.106;7.004;2023-06-19T15:14:33;28.80;89.00
52565;DHT22;38460;53.106;7.004;2023-06-19T15:17:01;28.90;88.50
52565;DHT22;38460;53.106;7.004;2023-06-19T15:19:27;28.90;87.50
52565;DHT22;38460;53.106;7.004;2023-06-19T15:21:53;28.80;87.60
52565;DHT22;38460;53.106;7.004;2023-06-19T15:24:19;28.80;87.60
52565;DHT22;38460;53.106;7.004;2023-06-19T15:26:44;28.90;87.90
52565;DHT22;38460;53.106;7.004;2023-06-19T15:29:10;29.00;87.40
52565;DHT22;38460;53.106;7.004;2023-06-19T15:31:36;29.00;86.00
52565;DHT22;38460;53.106;7.004;2023-06-19T15:34:02;29.00;86.30
52565;DHT22;38460;53.106;7.004;2023-06-19T15:36:28;29.20;86.80